This is the latest recevied weather packets stored in our database for station/object OH2MUI. If no packets are shown the sender has not sent any weather packets the latest 10 day(s).
| Time | Temp. | Humidity | Pressure | Rain* | Wind** | Luminosity | Snow |
|---|---|---|---|---|---|---|---|
| 1777756669 | 11.11° C | 69% | 1008.3 hPa | 0 mm | - | - | - |
| 1777755644 | 11.67° C | 69% | 1008.5 hPa | 0 mm | - | - | - |
| 1777751424 | 13.33° C | - | - | 0 mm | - | - | - |
| 1777751419 | 13.33° C | 63% | 1009 hPa | 0 mm | - | - | - |
| 1777749270 | 13.89° C | 62% | 1009.3 hPa | 0 mm | - | - | - |
| 1777746904 | 15° C | 59% | 1009.5 hPa | 0 mm | - | - | - |
| 1777745744 | 15.56° C | 56% | 1009.6 hPa | 0 mm | - | - | - |
| 1777744764 | 16.11° C | 54% | 1009.6 hPa | 0 mm | - | - | - |
| 1777742714 | 17.22° C | 51% | 1009.5 hPa | 0 mm | - | - | - |
| 1777740539 | 17.78° C | 45% | 1009.6 hPa | 0 mm | - | - | - |
| 1777739344 | 18.33° C | 43% | 1009.6 hPa | 0 mm | - | - | - |
| 1777738284 | 18.33° C | 43% | 1009.7 hPa | 0 mm | - | - | - |
| 1777735959 | 18.33° C | 40% | 1010 hPa | 0 mm | - | - | - |
| 1777734989 | 18.33° C | 39% | 1010 hPa | 0 mm | - | - | - |
| 1777733949 | 18.33° C | 41% | 1010 hPa | 0 mm | - | - | - |
| 1777732918 | 18.33° C | 42% | 1010 hPa | 0 mm | - | - | - |
| 1777731934 | 18.33° C | 41% | 1010.1 hPa | 0 mm | - | - | - |
| 1777730969 | 18.89° C | 43% | 1010.1 hPa | 0 mm | - | - | - |
| 1777729974 | 18.89° C | 42% | 1010.1 hPa | 0 mm | - | - | - |
| 1777728892 | 18.89° C | 40% | 1010 hPa | 0 mm | - | - | - |
| 1777728884 | 18.89° C | 40% | 1010 hPa | 0 mm | - | - | - |
| 1777727927 | 18.89° C | 39% | 1010.1 hPa | 0 mm | - | - | - |
| 1777727919 | 18.89° C | 39% | 1010.1 hPa | 0 mm | - | - | - |
| 1777726729 | 19.44° C | 38% | 1009.9 hPa | 0 mm | - | - | - |
| 1777725596 | 20° C | - | - | - | - | - | - |
* Rain latest hour (hover to see other rain measurements)
** Current wind speed in m/s (hover to see current wind gust speed)